Weather observations for the past three days for
Pratt Municipal
Metric (Imperial)
Date Time (cdt) Wind (kph) Vis. (km) Weather Sky Cond. Temperature (ºC) Relative Humidity Wind Chill (°C) Heat Index (°C) Pressure Precipitation (cm)
Air Dwpt 6 hour altimeter (cm) sea level (mb) 1 hr 3 hr 6 hr
Max. Min.
07 16:35 W 13 G 30 16.09 Fair CLR 26.1 -0.3 18% 25 75.87 0.0
07 16:15 SW 15 16.09 Fair CLR 25.9 -0.3 18% 25 75.9 0.0
07 15:55 W 11 G 31 16.09 Fair CLR 25.3 -0.5 18% 25 75.9 0.0
07 15:35 SW 20 G 33 16.09 Fair CLR 25.1 0.9 20% 25 75.92 0.0
07 15:15 SW 20 G 31 16.09 Fair CLR 24.6 1.6 22% 25 75.97 0.0
07 14:55 W 24 G 33 16.09 Fair CLR 24.2 1.6 23% 25 76 0.0
07 14:35 W 26 G 33 16.09 Fair CLR 23.9 0.6 22% 25 76.02 0.0
07 14:15 SW 19 G 31 16.09 Fair CLR 23.3 1.1 23% 76.05 0.0
07 13:55 W 26 G 35 16.09 Fair CLR 23 2.2 26% 76.07 0.0
07 13:35 SW 26 G 33 16.09 Fair CLR 22 2.4 28% 76.1 0.0
07 13:15 SW 22 G 33 16.09 Fair CLR 21.2 2.7 30% 76.12 0.0
07 12:55 W 28 G 37 16.09 Fair CLR 20.6 3.2 20.7 4.6 32% 76.15 0.0
07 12:35 SW 24 G 33 16.09 Fair CLR 19.1 3 34% 76.17 0.0
07 12:15 SW 26 G 33 16.09 Fair CLR 18.8 3.5 36% 76.2 0.0
07 11:55 SW 22 G 30 16.09 Fair CLR 18.2 4 39% 76.23 0.0
07 11:35 SW 20 16.09 Fair CLR 17.4 3.9 41% 76.25 0.0
07 11:15 SW 17 G 28 16.09 Fair CLR 16.5 3.8 43% 76.28 0.0
07 10:55 SW 19 G 30 16.09 Fair CLR 15.8 3.6 44% 76.28 0.0
07 10:35 SW 22 G 31 16.09 Fair CLR 15.1 3.3 45% 76.3 0.0
07 10:15 W 24 16.09 Fair CLR 13.9 3.1 48% 76.3 0.0
07 09:55 SW 24 G 31 16.09 Fair CLR 13.5 4.4 54% 76.3 0.0
07 09:35 SW 22 16.09 Fair CLR 12.5 4.5 58% 76.33 0.0
07 09:15 SW 20 16.09 Fair CLR 11.1 5.1 67% 76.35 0.0
07 08:55 W 19 16.09 Fair CLR 9.9 5.6 75% 8 76.38 0.0
07 08:35 SW 17 16.09 Fair CLR 8.7 5.8 82% 6 76.38 0.0
07 08:15 SW 17 16.09 Fair CLR 8 6 87% 6 76.38 0.0
07 07:55 SW 15 16.09 Fair CLR 7 6.6 97% 5 76.38 0.0
07 07:35 SW 11 16.09 Fair CLR 5.8 5.5 98% 4 76.38 0.0
07 07:15 SW 13 11.27 Fair CLR 5.1 4.8 98% 3 76.38 0.0
07 06:10 SW 11 11.27 Fair CLR 4.5 4.2 98% 2 76.38 0.0
07 05:55 W 11 11.27 Fair CLR 4.5 4.2 98% 2 76.38 0.0
07 04:40 SW 7 16.09 Fair CLR 4 3.6 97% 2 76.43 0.0
07 04:20 W 9 16.09 Fair CLR 5.6 5.3 98% 4 76.43 0.0
07 03:35 W 9 16.09 Fair CLR 6 5.6 97% 4 76.48 0.0
07 03:15 W 7 16.09 Fair CLR 5.2 5 99% 4 76.48 0.0
07 02:55 W 6 16.09 Fair CLR 5.4 5.1 98% 76.5 0.0
07 02:40 SW 6 16.09 Fair CLR 5.5 5.2 98% 76.53 0.0
07 01:55 W 6 16.09 Partly Cloudy SCT065 7.3 6.8 97% 76.53 0.0
07 01:35 NW 7 16.09 Overcast SCT055 OVC065 8.6 5.7 82% 8 76.53 0.0
07 01:15 W 9 16.09 Overcast OVC065 8.8 5.7 81% 8 76.56 0.0
07 00:55 W 7 16.09 Overcast OVC065 8.8 5.6 12.9 8.5 81% 8 76.56 0.0
07 00:35 W 7 16.09 Mostly Cloudy BKN065 8.6 6 84% 8 76.56 0.0
07 00:15 W 9 16.09 Partly Cloudy SCT065 9.1 5.1 76% 8 76.53 0.0
06 23:55 NW 7 16.09 Overcast OVC065 10 5.6 74% 9 76.53 0.0
06 23:35 NW 6 16.09 Overcast OVC065 10.5 6 74% 76.53 0.0
06 23:15 NW 7 16.09 Overcast OVC065 10.7 5.4 70% 76.53 0.0
06 22:55 W 6 16.09 Overcast OVC055 11 5.3 68% 76.56 0.0
06 22:35 Calm 16.09 Overcast OVC055 11 5.5 69% 76.5 0.0
06 22:15 Calm 16.09 Overcast OVC055 11.1 5.5 69% 76.5 0.0
06 21:55 Calm 16.09 Overcast OVC055 11.2 5.2 67% 76.5 0.0
06 21:35 Calm 16.09 Overcast OVC055 11.2 4.6 64% 76.5 0.0
06 21:15 Calm 16.09 Overcast OVC055 11.2 4.5 64% 76.5 0.0
06 20:55 Calm 16.09 Overcast BKN055 OVC090 11 4.6 65% 76.48 0.0
06 20:35 Calm 16.09 Overcast BKN055 BKN080 OVC090 11.5 4 60% 76.45 0.0
06 20:15 NW 7 16.09 Overcast SCT055 BKN080 OVC090 12 3.5 56% 76.45 0.0
06 19:55 Calm 16.09 Overcast OVC090 12 2.9 54% 76.43 0.0
06 19:35 Calm 16.09 Overcast OVC090 12.5 2.5 51% 76.43 0.0
06 19:15 N 6 16.09 Overcast SCT050 OVC090 12.5 2.4 50% 76.43 0.0
06 18:55 Calm 16.09 Overcast BKN050 OVC090 12.9 2.4 14.1 11.4 49% 76.43 0.0
06 18:35 N 6 16.09 Overcast BKN050 OVC090 12.8 2.4 49% 76.43 0.0
06 18:15 N 7 16.09 Overcast BKN050 OVC090 12.7 2.5 50% 76.43 0.0
06 17:55 N 11 16.09 Overcast OVC050 12.8 2.5 50% 76.43 0.0
06 17:35 NE 11 16.09 Overcast OVC050 13 1.9 47% 76.43 0.0
06 17:15 N 13 16.09 Overcast SCT045 OVC050 13.4 2.6 48% 76.43 0.0
06 16:55 N 7 16.09 Overcast SCT045 SCT050 OVC065 13.3 2.1 47% 76.43 0.0
06 16:35 N 6 16.09 Overcast BKN050 OVC065 13.1 1.8 47% 76.43 0.0
06 16:15 NE 9 16.09 Overcast SCT044 BKN050 OVC065 13.5 2.3 47% 76.43 0.0
06 15:55 NE 11 16.09 Overcast BKN044 BKN050 OVC065 13.7 1.6 44% 76.43 0.0
06 15:35 NE 7 16.09 Overcast BKN046 OVC065 13.1 1.7 46% 76.48 0.0
06 15:15 N 11 16.09 Overcast BKN040 BKN047 OVC065 12.6 1.7 48% 76.48 0.0
06 14:55 Calm 16.09 Mostly Cloudy BKN040 BKN046 BKN080 13.3 1.9 46% 76.48 0.0
06 14:35 NE 7 16.09 Mostly Cloudy SCT042 BKN095 13.1 1.3 45% 76.5 0.0
06 14:15 E 13 16.09 Overcast SCT080 OVC095 12.5 1.1 46% 76.5 0.0
06 13:55 E 11 16.09 Overcast SCT038 BKN080 OVC095 12.3 1.4 48% 76.53 0.0
06 13:35 NE 13 16.09 Overcast SCT036 OVC070 11.8 0.9 47% 76.53 0.0
06 13:15 NE 13 16.09 Overcast SCT036 BKN060 OVC080 11.9 1.1 48% 76.53 0.0
06 12:55 NE 11 16.09 Overcast SCT029 OVC060 11.2 1.6 11.2 6.7 52% 76.56 0.0
06 12:35 NE 11 16.09 Overcast OVC060 10.8 2.7 58% 76.56 0.0
06 12:15 NE 9 16.09 Overcast SCT021 OVC060 10.5 3.5 62% 76.56 0.0
06 11:55 NE 11 16.09 Overcast SCT017 OVC060 10.2 4.6 68% 76.56 0.0
06 11:35 NE 11 16.09 Overcast BKN017 BKN022 OVC060 9.3 4.1 70% 8 76.56 0.0
06 11:15 NE 13 16.09 Overcast BKN015 OVC023 8.7 4.6 76% 7 76.56 0.0
06 10:55 NE 13 16.09 Overcast BKN013 BKN022 OVC060 8.5 5.7 83% 7 76.53 0.0
06 10:35 NE 15 16.09 Overcast SCT011 BKN017 OVC060 8.1 5.6 84% 6 76.5 0.0
06 10:15 NE 13 16.09 Overcast SCT011 BKN027 OVC060 7.9 6.2 89% 6 76.56 0.0
06 09:55 NE 13 16.09 Overcast SCT009 BKN021 OVC060 7.7 7 95% 6 76.56 0.0
06 09:35 NE 9 16.09 Overcast SCT013 BKN024 OVC050 7.6 7.3 98% 6 76.5 0.0
06 09:15 NE 9 16.09 Overcast SCT009 BKN014 OVC050 7.5 7.1 97% 6 76.56 0.0
06 08:55 NE 7 16.09 Overcast BKN009 BKN015 OVC055 7.5 7.2 98% 6 76.5 0.0
06 08:35 NE 9 16.09 Overcast SCT009 SCT012 OVC055 7.3 7 98% 6 76.48 0.0
06 08:15 NE 9 16.09 Overcast SCT009 SCT014 OVC055 7.2 7 99% 6 76.48 0.0
06 07:55 NE 7 16.09 Overcast SCT009 SCT048 OVC070 7.1 6.8 98% 6 76.45 0.0
06 07:35 Calm 16.09 Overcast SCT009 SCT019 OVC070 7 6.7 98% 76.43 0.0
06 07:15 N 6 16.09 Overcast SCT019 OVC070 6.9 6.5 97% 76.43 0.0
06 06:55 N 6 16.09 Overcast SCT020 SCT031 OVC070 6.8 6.5 6.9 6.3 98% 76.38 0.0 0.41
06 06:35 Calm 16.09 Overcast SCT020 OVC031 6.8 6.5 98% 76.38 0.0
06 06:15 Calm 16.09 Overcast SCT008 BKN022 OVC031 6.7 6.5 99% 76.35 0.0
06 05:55 Calm 16.09 Overcast BKN008 BKN022 OVC070 6.7 6.5 99% 76.3 0.0
06 05:35 Calm 16.09 Overcast BKN008 BKN021 OVC070 6.8 6.5 98% 76.3 0.0
06 05:15 Calm 16.09 Overcast SCT008 BKN021 OVC070 6.5 6.2 98% 76.3 0.0
06 04:55 Calm 16.09 Overcast SCT008 SCT021 OVC070 6.5 6.2 98% 76.28 0.0
06 04:35 Calm 16.09 Overcast OVC070 6.5 6.1 97% 76.3 0.0
06 04:15 Calm 16.09 Overcast OVC070 6.5 6.2 98% 76.28 0.0
06 03:55 Calm 16.09 Overcast OVC070 6.4 6.1 98% 76.28 0.0 0.41
06 03:35 Calm 16.09 Overcast BKN080 OVC090 6.3 6 98% 76.3 0.0
06 03:15 NE 6 16.09 Light Drizzle SCT020 SCT038 OVC095 6.5 6.1 97% 76.3 0.0
06 02:55 NE 7 16.09 Light Rain SCT008 BKN017 OVC037 6.5 6.1 97% 5 76.3 0.0 0.25
06 02:35 Calm 11.27 Rain BKN010 OVC023 6.3 6 98% 76.35 0.0 0.2
06 02:15 N 7 8.05 Light Rain SCT012 OVC026 6.5 6.1 97% 5 76.38 0.0 0.1
06 01:55 E 6 16.09 Rain SCT026 BKN035 OVC043 6.5 6.1 97% 76.38 0.0 0.15
06 01:35 NE 13 16.09 Light Rain SCT035 OVC044 6.3 6 98% 4 76.25 0.0 0.15
06 01:15 NE 11 16.09 Rain BKN043 OVC060 6.5 6.1 97% 5 76.25 0.0 0.08
06 00:55 NE 15 16.09 Light Rain BKN037 OVC060 6.6 6.3 11.6 6.6 98% 4 76.17 0.0 0.03 0.03
06 00:15 NE 15 16.09 Light Rain OVC060 7 6.7 98% 5 76.2 0.0
05 23:55 NE 11 16.09 Drizzle OVC060 7.1 6.8 98% 5 76.2 0.0
05 23:35 NE 17 16.09 Light Rain BKN060 OVC095 7.2 6.8 97% 5 76.12 0.0
05 23:15 NE 19 16.09 Overcast OVC060 8 4.1 77% 5 76.12 0.0
05 22:55 N 9 16.09 Overcast OVC060 8.4 4.2 75% 7 76.17 0.0
05 22:35 NE 13 16.09 Overcast OVC060 8.2 4 75% 6 76.15 0.0
05 22:15 NE 15 16.09 Overcast OVC060 8.5 3.7 72% 6 76.17 0.0
05 21:55 NE 17 16.09 Overcast OVC060 8.5 4.4 76% 6 76.12 0.0
05 21:35 NE 13 16.09 Overcast OVC060 8.5 4.7 77% 7 76.1 0.0
05 21:15 NE 13 16.09 Light Drizzle OVC060 8.9 4.6 75% 7 76.1 0.0
05 20:55 NE 9 16.09 Overcast SCT041 OVC060 9.7 3.1 64% 9 76.1 0.0
05 20:35 N 20 16.09 Overcast SCT039 OVC060 10 3.1 63% 8 76.07 0.0
05 20:15 NE 11 16.09 Light Rain BKN041 OVC060 10.3 2.3 58% 76.07 0.0
05 19:55 NE 17 16.09 Overcast OVC041 10.5 2 56% 76.07 0.0
05 19:35 NE 19 16.09 Overcast BKN041 OVC060 10.8 2.2 56% 76.05 0.0
05 19:15 NE 20 16.09 Overcast SCT041 OVC060 11.4 2 53% 76 0.0
05 18:55 NE 20 G 28 16.09 Overcast OVC050 11.7 1.7 13.2 11.1 51% 75.97 0.0
05 18:35 NE 17 16.09 Overcast SCT044 OVC050 11.6 2.4 54% 75.95 0.0
05 18:15 NE 19 16.09 Overcast SCT044 OVC050 12.2 1.5 48% 75.95 0.0
05 17:55 NE 20 G 28 16.09 Overcast SCT044 OVC050 12.9 1.1 45% 75.9 0.0
05 17:35 E 19 G 28 16.09 Overcast OVC050 12.7 1 45% 75.9 0.0
05 17:15 NE 20 G 28 16.09 Overcast SCT041 OVC050 13 1.4 45% 75.9 0.0
05 16:55 NE 20 G 26 16.09 Overcast OVC041 12.9 1.9 47% 75.9 0.0
05 16:35 NE 19 G 31 16.09 Overcast OVC041 13.1 2 47% 75.92 0.0
05 16:15 E 15 16.09 Overcast OVC039 12.7 3.2 53% 75.92 0.0
05 15:55 NE 19 16.09 Overcast BKN037 BKN044 OVC050 12.9 3.3 52% 75.95 0.0
05 15:35 NE 15 16.09 Overcast SCT035 OVC050 12.8 3.5 53% 75.95 0.0
05 15:15 NE 19 16.09 Overcast SCT034 BKN049 OVC060 13 3.6 53% 75.95 0.0
05 14:35 NE 17 G 30 16.09 Overcast BKN047 OVC055 11.8 3.4 57% 76 0.0
05 14:15 NE 17 16.09 Overcast SCT047 OVC055 11.2 3.2 58% 76 0.0
05 13:55 NE 24 G 39 16.09 Overcast OVC055 11.3 2.9 57% 75.97 0.0
05 13:35 NE 28 G 41 16.09 Overcast OVC055 11.1 3.4 59% 75.97 0.0
05 13:15 NE 30 G 41 16.09 Overcast OVC055 12.2 2 50% 75.95 0.0
05 12:55 NE 30 G 41 16.09 Overcast OVC055 12.3 1.9 13 11.5 49% 75.97 0.0
05 12:35 NE 30 G 39 16.09 Overcast OVC055 12.8 1.9 48% 75.95 0.0
05 12:15 NE 33 G 41 16.09 Overcast and Breezy OVC055 12.6 1.6 47% 75.97 0.0
05 11:55 NE 28 G 41 16.09 Overcast OVC055 12.1 1.7 49% 75.95 0.0
05 11:35 NE 28 G 46 16.09 Overcast OVC055 12.1 1.6 49% 75.92 0.0
05 11:15 E 37 G 50 16.09 Overcast and Breezy OVC055 11.9 0.8 47% 75.92 0.0
05 10:55 NE 39 G 56 16.09 Overcast and Breezy OVC055 11.8 0.2 45% 75.92 0.0
05 10:30 NE 35 G 43 16.09 Overcast and Breezy OVC055 11.6 0.4 46% 75.92 0.0
05 10:15 NE 30 G 43 16.09 Overcast OVC055 11.9 0 44% 75.9 0.0
05 09:55 NE 33 G 44 16.09 Overcast and Breezy OVC055 12 0 44% 75.87 0.0
05 09:35 NE 26 G 50 16.09 Overcast OVC055 12 -0.1 44% 75.82 0.0
05 09:15 NE 33 G 41 16.09 Overcast and Breezy OVC055 12.1 -0.2 43% 75.82 0.0
05 08:55 NE 31 G 48 16.09 Overcast OVC055 12.4 -0.3 42% 75.82 0.0
05 08:35 NE 31 G 46 16.09 Overcast OVC055 12.3 -0.2 42% 75.79 0.0
05 08:15 NE 31 G 44 16.09 Overcast OVC055 12 -0.4 43% 75.77 0.0
05 07:55 NE 22 G 46 16.09 Overcast OVC049 12 0 44% 75.74 0.0
05 07:35 NE 26 G 37 16.09 Overcast OVC049 12.1 0.1 44% 75.74 0.0
05 07:15 NE 26 G 39 16.09 Overcast OVC049 12.1 0.3 45% 75.72 0.0
05 06:55 NE 30 G 39 16.09 Overcast OVC049 12.2 0.3 19 12.2 44% 75.64 0.0
05 06:35 NE 33 G 44 16.09 Overcast and Breezy OVC047 12.5 0.2 43% 75.64 0.0
05 06:15 NE 26 G 39 16.09 Overcast OVC043 12.5 0.5 44% 75.64 0.0
05 05:55 NE 28 G 43 16.09 Overcast OVC043 12.7 0.6 44% 75.59 0.0
05 05:35 NE 30 G 43 16.09 Overcast OVC041 12.8 0.7 44% 75.57 0.0
05 05:15 NE 31 G 46 16.09 Overcast OVC039 13 0.7 43% 75.54 0.0
05 04:55 NE 31 G 52 16.09 Overcast OVC037 13.2 0.7 43% 75.49 0.0
05 04:35 NE 41 G 56 16.09 Overcast and Breezy OVC035 13.6 0.5 41% 75.44 0.0
05 04:15 NE 43 G 54 16.09 Overcast and Windy OVC033 14 0.6 40% 75.41 0.0
05 03:55 NE 33 G 46 16.09 Overcast and Breezy OVC033 14.2 0.8 40% 75.39 0.0
05 03:35 NE 39 G 59 16.09 Overcast and Breezy OVC033 14.5 0.5 39% 75.36 0.0
05 03:15 NE 39 G 50 16.09 Overcast and Breezy OVC037 14.9 1.1 39% 75.41 0.0
05 02:55 NE 37 G 52 16.09 Overcast and Breezy OVC037 15.8 2.2 40% 75.39 0.0
05 02:35 NE 31 G 48 16.09 Overcast OVC035 16.5 3.3 42% 75.36 0.0
05 02:15 NE 39 G 50 16.09 Overcast and Breezy OVC032 16.9 3.7 42% 75.31 0.0
05 01:55 NE 26 G 44 16.09 Overcast OVC030 17 4.8 45% 75.34 0.0
05 01:35 NE 28 G 43 16.09 Overcast OVC028 17.2 7 51% 75.34 0.0
05 01:15 NE 33 G 41 16.09 Overcast and Breezy OVC030 18.5 9 54% 75.29 0.0
05 00:55 NE 22 G 37 16.09 Overcast OVC032 19 9.7 26.9 19 55% 75.23 0.0
05 00:35 NE 13 16.09 Partly Cloudy SCT034 19.5 13 66% 75.23 0.0
05 00:15 NE 13 16.09 Fair CLR 20.2 13.3 65% 75.18 0.0
04 23:55 NE 13 16.09 Fair CLR 19.7 13 65% 75.21 0.0
04 23:35 NE 7 16.09 Fair CLR 20.5 12.8 61% 75.18 0.0
04 23:15 E 7 16.09 Fair CLR 20.2 12.3 61% 75.18 0.0
04 22:55 E 7 16.09 Fair CLR 20.9 12.2 58% 75.18 0.0
04 22:35 E 7 16.09 Fair CLR 21 12 57% 75.18 0.0
04 22:15 E 7 16.09 Fair CLR 21.5 11.3 52% 75.18 0.0
04 21:55 E 9 16.09 Fair CLR 22.1 10.2 47% 75.16 0.0
04 21:35 E 9 16.09 Fair CLR 23 9.5 42% 75.16 0.0
04 21:15 E 11 16.09 Fair CLR 22.6 9.5 43% 75.16 0.0
04 20:55 E 6 16.09 Fair CLR 23.5 9.5 41% 75.16 0.0
04 20:35 N 7 16.09 Fair CLR 22.5 10 45% 75.16 0.0
04 20:15 Calm 11.27 Fair CLR 25.1 9.3 37% 26 75.13 0.0
04 19:55 Calm 16.09 Partly Cloudy SCT120 23.9 10.1 42% 25 75.13 0.0
04 19:35 SE 11 16.09 Partly Cloudy SCT120 25.3 9.1 36% 26 75.11 0.0
04 19:15 SE 6 16.09 Partly Cloudy SCT110 25.9 8.8 34% 26 75.08 0.0
04 18:55 SE 13 16.09 Fair CLR 27 8 30.6 27 30% 26 75.08 0.0
04 18:35 S 13 16.09 Fair CLR 27.6 7.5 28% 27 75.08 0.0
04 18:15 S 17 3.22 Fair with Haze CLR 28.2 7.4 27% 27 75.11 0.0
04 17:55 S 15 16.09 Fair CLR 29 7.6 26% 28 75.13 0.0
04 17:35 S 13 16.09 Fair CLR 27.8 7.1 27% 27 75.13 0.0
04 17:15 SE 11 16.09 Fair CLR 28.5 6 24% 27 75.11 0.0
04 16:55 SE 11 16.09 Fair CLR 29.2 6 23% 28 75.11 0.0
Date Time (cdt) Wind (kph) Vis. (km) Weather Sky Cond. Air Dwpt Max. Min. Relative Humidity Wind Chill (°C) Heat Index (°C) altimeter (cm) sea level (mb) 1 hr 3 hr 6 hr
6 hour
Temperature (ºC) Pressure Precipitation (cm)